sensor_id;sensor_type;location;lat;lon;timestamp;temperature;humidity
17968;DHT22;9109;48.050;11.696;2023-05-07T04:04:26;12.80;99.90
17968;DHT22;9109;48.050;11.696;2023-05-07T04:07:28;12.50;99.90
17968;DHT22;9109;48.050;11.696;2023-05-07T04:10:30;12.70;99.90
17968;DHT22;9109;48.050;11.696;2023-05-07T04:13:32;12.80;99.90
17968;DHT22;9109;48.050;11.696;2023-05-07T04:16:34;13.00;99.90
17968;DHT22;9109;48.050;11.696;2023-05-07T04:19:38;13.20;99.90
17968;DHT22;9109;48.050;11.696;2023-05-07T04:22:40;13.00;99.90
17968;DHT22;9109;48.050;11.696;2023-05-07T04:25:42;12.90;99.90
17968;DHT22;9109;48.050;11.696;2023-05-07T04:28:44;13.00;99.90
17968;DHT22;9109;48.050;11.696;2023-05-07T04:31:46;12.90;99.90
17968;DHT22;9109;48.050;11.696;2023-05-07T04:34:49;13.00;99.90
17968;DHT22;9109;48.050;11.696;2023-05-07T04:37:51;13.20;99.90
17968;DHT22;9109;48.050;11.696;2023-05-07T04:40:53;13.20;99.90
17968;DHT22;9109;48.050;11.696;2023-05-07T04:43:55;13.20;99.90
17968;DHT22;9109;48.050;11.696;2023-05-07T04:46:57;13.30;99.90
17968;DHT22;9109;48.050;11.696;2023-05-07T04:50:00;13.00;99.90
17968;DHT22;9109;48.050;11.696;2023-05-07T04:53:02;12.90;99.90
17968;DHT22;9109;48.050;11.696;2023-05-07T04:56:04;13.00;99.90
17968;DHT22;9109;48.050;11.696;2023-05-07T04:59:06;13.20;99.90
17968;DHT22;9109;48.050;11.696;2023-05-07T05:02:09;13.30;99.90
17968;DHT22;9109;48.050;11.696;2023-05-07T05:05:12;13.30;99.90
17968;DHT22;9109;48.050;11.696;2023-05-07T05:08:14;13.30;99.90
17968;DHT22;9109;48.050;11.696;2023-05-07T05:11:16;13.10;99.90
17968;DHT22;9109;48.050;11.696;2023-05-07T05:14:18;12.90;99.90
17968;DHT22;9109;48.050;11.696;2023-05-07T05:17:20;12.80;99.90
17968;DHT22;9109;48.050;11.696;2023-05-07T05:20:24;12.90;99.90
17968;DHT22;9109;48.050;11.696;2023-05-07T05:23:25;13.10;99.90
17968;DHT22;9109;48.050;11.696;2023-05-07T05:26:27;13.10;99.90
17968;DHT22;9109;48.050;11.696;2023-05-07T05:29:29;13.10;99.90
17968;DHT22;9109;48.050;11.696;2023-05-07T05:32:32;13.00;99.90
17968;DHT22;9109;48.050;11.696;2023-05-07T05:35:35;13.10;99.90
17968;DHT22;9109;48.050;11.696;2023-05-07T05:38:37;13.20;99.90
17968;DHT22;9109;48.050;11.696;2023-05-07T05:41:39;13.30;99.90
17968;DHT22;9109;48.050;11.696;2023-05-07T05:44:41;13.40;99.90
17968;DHT22;9109;48.050;11.696;2023-05-07T05:47:43;13.60;99.90
17968;DHT22;9109;48.050;11.696;2023-05-07T05:50:47;13.70;99.90
17968;DHT22;9109;48.050;11.696;2023-05-07T05:53:49;13.90;99.90
17968;DHT22;9109;48.050;11.696;2023-05-07T05:56:51;14.10;99.90
17968;DHT22;9109;48.050;11.696;2023-05-07T05:59:53;14.20;99.90
17968;DHT22;9109;48.050;11.696;2023-05-07T06:02:55;14.30;99.90
17968;DHT22;9109;48.050;11.696;2023-05-07T06:05:59;14.40;99.90
17968;DHT22;9109;48.050;11.696;2023-05-07T06:09:01;14.60;99.90
17968;DHT22;9109;48.050;11.696;2023-05-07T06:12:03;14.70;99.90
17968;DHT22;9109;48.050;11.696;2023-05-07T06:15:06;14.70;99.90
17968;DHT22;9109;48.050;11.696;2023-05-07T06:18:08;14.90;99.90
17968;DHT22;9109;48.050;11.696;2023-05-07T06:21:13;15.00;99.90
17968;DHT22;9109;48.050;11.696;2023-05-07T06:24:35;15.10;99.90
17968;DHT22;9109;48.050;11.696;2023-05-07T06:27:45;15.30;99.90
17968;DHT22;9109;48.050;11.696;2023-05-07T06:30:47;15.50;99.90
17968;DHT22;9109;48.050;11.696;2023-05-07T06:33:50;15.70;99.90
17968;DHT22;9109;48.050;11.696;2023-05-07T06:36:54;15.80;99.90
17968;DHT22;9109;48.050;11.696;2023-05-07T06:39:56;15.90;99.90
17968;DHT22;9109;48.050;11.696;2023-05-07T06:42:58;16.00;99.90
17968;DHT22;9109;48.050;11.696;2023-05-07T06:46:00;16.20;99.90
17968;DHT22;9109;48.050;11.696;2023-05-07T06:49:04;16.30;99.90
17968;DHT22;9109;48.050;11.696;2023-05-07T06:52:08;16.50;99.90
17968;DHT22;9109;48.050;11.696;2023-05-07T06:55:10;16.60;99.90
17968;DHT22;9109;48.050;11.696;2023-05-07T06:58:12;16.70;99.90
17968;DHT22;9109;48.050;11.696;2023-05-07T07:01:14;16.80;99.90
17968;DHT22;9109;48.050;11.696;2023-05-07T07:04:17;16.90;99.90
17968;DHT22;9109;48.050;11.696;2023-05-07T07:11:21;17.00;99.90
17968;DHT22;9109;48.050;11.696;2023-05-07T07:14:28;17.20;99.90
17968;DHT22;9109;48.050;11.696;2023-05-07T07:17:30;17.40;99.90
17968;DHT22;9109;48.050;11.696;2023-05-07T07:20:32;17.60;99.90
17968;DHT22;9109;48.050;11.696;2023-05-07T07:23:34;17.70;99.90
17968;DHT22;9109;48.050;11.696;2023-05-07T07:26:39;17.70;99.90
17968;DHT22;9109;48.050;11.696;2023-05-07T07:29:43;17.80;99.90
17968;DHT22;9109;48.050;11.696;2023-05-07T07:32:45;17.80;99.90
17968;DHT22;9109;48.050;11.696;2023-05-07T07:35:48;17.80;99.90
17968;DHT22;9109;48.050;11.696;2023-05-07T07:38:50;17.90;99.90
17968;DHT22;9109;48.050;11.696;2023-05-07T07:41:54;18.00;99.90
17968;DHT22;9109;48.050;11.696;2023-05-07T07:45:07;18.20;99.90
17968;DHT22;9109;48.050;11.696;2023-05-07T07:48:13;18.30;99.90
17968;DHT22;9109;48.050;11.696;2023-05-07T07:51:15;18.30;99.90
17968;DHT22;9109;48.050;11.696;2023-05-07T07:54:17;18.30;99.90
17968;DHT22;9109;48.050;11.696;2023-05-07T07:57:20;18.40;99.90
17968;DHT22;9109;48.050;11.696;2023-05-07T08:00:22;18.40;99.90
17968;DHT22;9109;48.050;11.696;2023-05-07T08:03:24;18.40;99.90
17968;DHT22;9109;48.050;11.696;2023-05-07T08:06:26;18.50;99.90
17968;DHT22;9109;48.050;11.696;2023-05-07T08:09:28;18.50;99.90
17968;DHT22;9109;48.050;11.696;2023-05-07T08:12:32;18.70;99.10
17968;DHT22;9109;48.050;11.696;2023-05-07T08:15:34;18.70;98.90
17968;DHT22;9109;48.050;11.696;2023-05-07T08:18:36;18.70;99.90
17968;DHT22;9109;48.050;11.696;2023-05-07T08:21:39;18.80;99.90
17968;DHT22;9109;48.050;11.696;2023-05-07T08:24:41;18.90;99.70
17968;DHT22;9109;48.050;11.696;2023-05-07T08:27:44;19.00;97.40
17968;DHT22;9109;48.050;11.696;2023-05-07T08:30:46;19.00;98.50
17968;DHT22;9109;48.050;11.696;2023-05-07T08:33:49;19.20;98.10
17968;DHT22;9109;48.050;11.696;2023-05-07T08:36:51;19.30;97.50
17968;DHT22;9109;48.050;11.696;2023-05-07T08:39:53;19.40;96.40
17968;DHT22;9109;48.050;11.696;2023-05-07T08:42:57;19.40;95.50
17968;DHT22;9109;48.050;11.696;2023-05-07T08:49:57;19.30;95.70
17968;DHT22;9109;48.050;11.696;2023-05-07T08:52:59;19.30;95.60
17968;DHT22;9109;48.050;11.696;2023-05-07T08:56:02;19.40;97.30
17968;DHT22;9109;48.050;11.696;2023-05-07T08:59:06;19.50;97.10
17968;DHT22;9109;48.050;11.696;2023-05-07T09:02:10;19.60;96.30
17968;DHT22;9109;48.050;11.696;2023-05-07T09:05:12;19.70;95.50
17968;DHT22;9109;48.050;11.696;2023-05-07T09:08:15;19.80;94.90
17968;DHT22;9109;48.050;11.696;2023-05-07T09:11:20;19.80;94.30
17968;DHT22;9109;48.050;11.696;2023-05-07T09:14:24;19.70;94.30
17968;DHT22;9109;48.050;11.696;2023-05-07T09:17:31;19.60;94.20
17968;DHT22;9109;48.050;11.696;2023-05-07T09:24:41;19.90;95.70
17968;DHT22;9109;48.050;11.696;2023-05-07T09:27:56;20.00;94.60
17968;DHT22;9109;48.050;11.696;2023-05-07T09:30:59;20.10;94.30
17968;DHT22;9109;48.050;11.696;2023-05-07T09:38:05;20.20;91.70
17968;DHT22;9109;48.050;11.696;2023-05-07T09:41:08;20.10;91.70
17968;DHT22;9109;48.050;11.696;2023-05-07T09:44:25;20.20;93.40
17968;DHT22;9109;48.050;11.696;2023-05-07T09:47:43;20.60;94.00
17968;DHT22;9109;48.050;11.696;2023-05-07T09:50:49;20.70;90.20
17968;DHT22;9109;48.050;11.696;2023-05-07T09:53:53;20.70;91.50
17968;DHT22;9109;48.050;11.696;2023-05-07T09:57:20;20.90;91.90
17968;DHT22;9109;48.050;11.696;2023-05-07T10:00:22;21.00;90.60
17968;DHT22;9109;48.050;11.696;2023-05-07T10:03:27;21.00;90.10
17968;DHT22;9109;48.050;11.696;2023-05-07T10:06:31;20.80;86.70
17968;DHT22;9109;48.050;11.696;2023-05-07T10:09:47;20.70;87.40
17968;DHT22;9109;48.050;11.696;2023-05-07T10:12:54;20.70;88.30
17968;DHT22;9109;48.050;11.696;2023-05-07T10:16:54;20.80;83.70
17968;DHT22;9109;48.050;11.696;2023-05-07T10:20:16;20.70;82.60
17968;DHT22;9109;48.050;11.696;2023-05-07T10:24:16;20.80;84.10
17968;DHT22;9109;48.050;11.696;2023-05-07T10:35:18;20.90;76.80
17968;DHT22;9109;48.050;11.696;2023-05-07T10:38:40;21.10;77.60
17968;DHT22;9109;48.050;11.696;2023-05-07T10:41:45;21.20;78.10
17968;DHT22;9109;48.050;11.696;2023-05-07T10:44:55;21.40;76.20
17968;DHT22;9109;48.050;11.696;2023-05-07T10:51:44;21.50;73.50
17968;DHT22;9109;48.050;11.696;2023-05-07T10:54:47;21.40;75.10
17968;DHT22;9109;48.050;11.696;2023-05-07T10:58:42;21.40;83.10
17968;DHT22;9109;48.050;11.696;2023-05-07T11:02:14;21.30;86.20
17968;DHT22;9109;48.050;11.696;2023-05-07T11:05:22;21.40;85.80
17968;DHT22;9109;48.050;11.696;2023-05-07T11:08:25;21.40;84.20
17968;DHT22;9109;48.050;11.696;2023-05-07T11:11:45;21.20;83.90
17968;DHT22;9109;48.050;11.696;2023-05-07T11:18:48;21.10;83.60
17968;DHT22;9109;48.050;11.696;2023-05-07T11:21:50;21.10;84.70
17968;DHT22;9109;48.050;11.696;2023-05-07T11:24:55;21.10;84.90
17968;DHT22;9109;48.050;11.696;2023-05-07T11:28:15;21.10;83.00
17968;DHT22;9109;48.050;11.696;2023-05-07T11:31:50;21.20;83.50
17968;DHT22;9109;48.050;11.696;2023-05-07T11:35:11;21.40;84.40
17968;DHT22;9109;48.050;11.696;2023-05-07T11:38:13;21.50;85.30
17968;DHT22;9109;48.050;11.696;2023-05-07T11:41:17;21.60;85.00
17968;DHT22;9109;48.050;11.696;2023-05-07T11:44:21;21.40;86.40
17968;DHT22;9109;48.050;11.696;2023-05-07T11:47:24;21.40;86.10
17968;DHT22;9109;48.050;11.696;2023-05-07T11:50:28;21.40;85.60
17968;DHT22;9109;48.050;11.696;2023-05-07T11:53:36;21.60;88.80
17968;DHT22;9109;48.050;11.696;2023-05-07T11:56:39;21.90;85.40
17968;DHT22;9109;48.050;11.696;2023-05-07T11:59:42;22.10;85.00
17968;DHT22;9109;48.050;11.696;2023-05-07T12:02:48;22.50;82.20
17968;DHT22;9109;48.050;11.696;2023-05-07T12:05:55;22.30;82.70
17968;DHT22;9109;48.050;11.696;2023-05-07T12:09:02;22.10;84.90
17968;DHT22;9109;48.050;11.696;2023-05-07T12:12:11;22.00;82.50
17968;DHT22;9109;48.050;11.696;2023-05-07T12:15:42;21.90;82.70
17968;DHT22;9109;48.050;11.696;2023-05-07T12:18:55;22.00;82.90
17968;DHT22;9109;48.050;11.696;2023-05-07T12:22:02;22.10;80.50
17968;DHT22;9109;48.050;11.696;2023-05-07T12:25:08;22.10;83.30
17968;DHT22;9109;48.050;11.696;2023-05-07T12:28:13;22.20;81.60
17968;DHT22;9109;48.050;11.696;2023-05-07T12:31:15;22.30;82.10
17968;DHT22;9109;48.050;11.696;2023-05-07T12:34:18;22.00;82.70
17968;DHT22;9109;48.050;11.696;2023-05-07T12:37:25;21.90;84.70
17968;DHT22;9109;48.050;11.696;2023-05-07T12:40:35;22.00;84.10
17968;DHT22;9109;48.050;11.696;2023-05-07T12:43:38;22.20;84.50
17968;DHT22;9109;48.050;11.696;2023-05-07T12:46:40;22.10;82.10
17968;DHT22;9109;48.050;11.696;2023-05-07T12:49:42;22.10;83.00
17968;DHT22;9109;48.050;11.696;2023-05-07T12:52:48;22.10;79.20
17968;DHT22;9109;48.050;11.696;2023-05-07T12:55:51;22.30;79.40
17968;DHT22;9109;48.050;11.696;2023-05-07T12:58:57;22.50;78.80
17968;DHT22;9109;48.050;11.696;2023-05-07T13:02:00;22.40;78.80
17968;DHT22;9109;48.050;11.696;2023-05-07T13:05:05;22.50;75.90
17968;DHT22;9109;48.050;11.696;2023-05-07T13:08:08;22.60;78.30
17968;DHT22;9109;48.050;11.696;2023-05-07T13:11:12;22.60;77.50
17968;DHT22;9109;48.050;11.696;2023-05-07T13:14:14;22.60;80.10
17968;DHT22;9109;48.050;11.696;2023-05-07T13:17:16;22.70;77.50
17968;DHT22;9109;48.050;11.696;2023-05-07T13:20:19;22.50;77.50
17968;DHT22;9109;48.050;11.696;2023-05-07T13:23:22;22.30;78.00
17968;DHT22;9109;48.050;11.696;2023-05-07T13:26:25;22.10;78.10
17968;DHT22;9109;48.050;11.696;2023-05-07T13:29:27;22.10;77.80
17968;DHT22;9109;48.050;11.696;2023-05-07T13:32:39;22.10;76.50
17968;DHT22;9109;48.050;11.696;2023-05-07T13:35:44;22.10;76.90
17968;DHT22;9109;48.050;11.696;2023-05-07T13:38:48;22.10;79.50
17968;DHT22;9109;48.050;11.696;2023-05-07T13:41:51;22.40;77.90
17968;DHT22;9109;48.050;11.696;2023-05-07T13:44:53;22.40;77.00
17968;DHT22;9109;48.050;11.696;2023-05-07T13:48:19;22.20;75.50
17968;DHT22;9109;48.050;11.696;2023-05-07T13:51:21;22.20;76.70
17968;DHT22;9109;48.050;11.696;2023-05-07T13:54:24;22.10;75.50
17968;DHT22;9109;48.050;11.696;2023-05-07T13:57:26;21.90;75.60
17968;DHT22;9109;48.050;11.696;2023-05-07T14:00:29;21.70;75.70
17968;DHT22;9109;48.050;11.696;2023-05-07T14:03:31;21.60;77.70
17968;DHT22;9109;48.050;11.696;2023-05-07T14:06:59;21.60;77.10
17968;DHT22;9109;48.050;11.696;2023-05-07T14:10:07;21.60;74.40
17968;DHT22;9109;48.050;11.696;2023-05-07T14:13:10;21.60;75.70
17968;DHT22;9109;48.050;11.696;2023-05-07T14:16:12;21.70;77.40
17968;DHT22;9109;48.050;11.696;2023-05-07T14:19:16;21.80;75.20
17968;DHT22;9109;48.050;11.696;2023-05-07T14:22:19;21.80;76.60
17968;DHT22;9109;48.050;11.696;2023-05-07T14:25:31;21.70;77.60
17968;DHT22;9109;48.050;11.696;2023-05-07T14:28:33;21.70;76.60
17968;DHT22;9109;48.050;11.696;2023-05-07T14:31:35;21.70;77.40
17968;DHT22;9109;48.050;11.696;2023-05-07T14:34:37;21.80;77.50
17968;DHT22;9109;48.050;11.696;2023-05-07T14:37:39;21.90;76.40
17968;DHT22;9109;48.050;11.696;2023-05-07T14:40:43;21.80;76.80
17968;DHT22;9109;48.050;11.696;2023-05-07T14:43:45;21.80;77.00
17968;DHT22;9109;48.050;11.696;2023-05-07T14:47:16;21.90;75.00
17968;DHT22;9109;48.050;11.696;2023-05-07T14:50:19;21.70;75.50
17968;DHT22;9109;48.050;11.696;2023-05-07T14:53:25;21.70;76.30
17968;DHT22;9109;48.050;11.696;2023-05-07T14:56:30;21.60;75.90
17968;DHT22;9109;48.050;11.696;2023-05-07T14:59:32;21.60;76.70
17968;DHT22;9109;48.050;11.696;2023-05-07T15:02:34;21.60;75.10
17968;DHT22;9109;48.050;11.696;2023-05-07T15:05:40;21.40;74.40
17968;DHT22;9109;48.050;11.696;2023-05-07T15:08:43;21.10;75.40
17968;DHT22;9109;48.050;11.696;2023-05-07T15:11:46;21.20;76.20
17968;DHT22;9109;48.050;11.696;2023-05-07T15:14:48;21.20;77.50
17968;DHT22;9109;48.050;11.696;2023-05-07T15:17:50;21.30;76.60
17968;DHT22;9109;48.050;11.696;2023-05-07T15:20:52;21.30;76.80
17968;DHT22;9109;48.050;11.696;2023-05-07T15:23:54;21.20;75.70
17968;DHT22;9109;48.050;11.696;2023-05-07T15:26:57;21.30;76.10
17968;DHT22;9109;48.050;11.696;2023-05-07T15:30:00;21.40;75.50
17968;DHT22;9109;48.050;11.696;2023-05-07T15:33:02;21.50;75.20
17968;DHT22;9109;48.050;11.696;2023-05-07T15:36:05;21.60;75.10
17968;DHT22;9109;48.050;11.696;2023-05-07T15:39:07;21.60;76.60
17968;DHT22;9109;48.050;11.696;2023-05-07T15:42:13;21.70;76.40
17968;DHT22;9109;48.050;11.696;2023-05-07T15:45:15;21.70;75.10
17968;DHT22;9109;48.050;11.696;2023-05-07T15:48:17;21.60;75.40
17968;DHT22;9109;48.050;11.696;2023-05-07T15:51:19;21.50;74.30
17968;DHT22;9109;48.050;11.696;2023-05-07T15:54:25;21.40;73.70
17968;DHT22;9109;48.050;11.696;2023-05-07T15:57:33;21.30;74.00
17968;DHT22;9109;48.050;11.696;2023-05-07T16:00:35;21.10;75.20
17968;DHT22;9109;48.050;11.696;2023-05-07T16:03:37;21.00;77.20
17968;DHT22;9109;48.050;11.696;2023-05-07T16:06:59;21.00;77.10
17968;DHT22;9109;48.050;11.696;2023-05-07T16:10:02;20.90;76.90
17968;DHT22;9109;48.050;11.696;2023-05-07T16:13:08;20.90;77.90
17968;DHT22;9109;48.050;11.696;2023-05-07T16:16:10;20.90;77.90
17968;DHT22;9109;48.050;11.696;2023-05-07T16:19:12;20.80;78.80
17968;DHT22;9109;48.050;11.696;2023-05-07T16:22:15;20.80;77.50
17968;DHT22;9109;48.050;11.696;2023-05-07T16:25:17;20.70;77.30
17968;DHT22;9109;48.050;11.696;2023-05-07T16:32:51;20.60;78.60
17968;DHT22;9109;48.050;11.696;2023-05-07T16:36:18;20.70;77.60
17968;DHT22;9109;48.050;11.696;2023-05-07T16:39:20;20.60;79.60
17968;DHT22;9109;48.050;11.696;2023-05-07T16:42:23;20.60;80.00
17968;DHT22;9109;48.050;11.696;2023-05-07T16:45:25;20.60;80.30
17968;DHT22;9109;48.050;11.696;2023-05-07T16:48:28;20.50;79.10
17968;DHT22;9109;48.050;11.696;2023-05-07T16:51:32;20.40;78.90
17968;DHT22;9109;48.050;11.696;2023-05-07T16:55:08;20.40;79.90
17968;DHT22;9109;48.050;11.696;2023-05-07T16:58:54;20.40;80.00
17968;DHT22;9109;48.050;11.696;2023-05-07T17:01:56;20.40;80.20
17968;DHT22;9109;48.050;11.696;2023-05-07T17:05:00;20.40;81.90
17968;DHT22;9109;48.050;11.696;2023-05-07T17:08:02;20.40;80.80
17968;DHT22;9109;48.050;11.696;2023-05-07T17:11:04;20.40;79.80
17968;DHT22;9109;48.050;11.696;2023-05-07T17:14:06;20.20;80.00
17968;DHT22;9109;48.050;11.696;2023-05-07T17:17:10;20.10;79.70
17968;DHT22;9109;48.050;11.696;2023-05-07T17:20:14;20.00;81.60
17968;DHT22;9109;48.050;11.696;2023-05-07T17:23:16;20.10;82.60
17968;DHT22;9109;48.050;11.696;2023-05-07T17:26:19;20.00;81.60
17968;DHT22;9109;48.050;11.696;2023-05-07T17:29:21;19.90;83.90
17968;DHT22;9109;48.050;11.696;2023-05-07T17:32:23;19.80;86.40
17968;DHT22;9109;48.050;11.696;2023-05-07T17:35:27;19.80;88.10
17968;DHT22;9109;48.050;11.696;2023-05-07T17:38:33;19.80;88.80
17968;DHT22;9109;48.050;11.696;2023-05-07T17:41:35;19.80;90.00
17968;DHT22;9109;48.050;11.696;2023-05-07T17:44:37;19.80;90.20
17968;DHT22;9109;48.050;11.696;2023-05-07T17:47:39;19.80;87.40
17968;DHT22;9109;48.050;11.696;2023-05-07T17:50:44;19.80;87.90
17968;DHT22;9109;48.050;11.696;2023-05-07T17:53:46;19.80;87.80
17968;DHT22;9109;48.050;11.696;2023-05-07T17:56:48;19.70;89.30
17968;DHT22;9109;48.050;11.696;2023-05-07T17:59:50;19.70;89.10
17968;DHT22;9109;48.050;11.696;2023-05-07T18:03:10;19.60;89.10
17968;DHT22;9109;48.050;11.696;2023-05-07T18:06:46;19.50;89.80
17968;DHT22;9109;48.050;11.696;2023-05-07T18:09:51;19.40;90.60
17968;DHT22;9109;48.050;11.696;2023-05-07T18:12:53;19.30;90.70
17968;DHT22;9109;48.050;11.696;2023-05-07T18:15:55;19.40;91.50
17968;DHT22;9109;48.050;11.696;2023-05-07T18:18:57;19.40;91.40
17968;DHT22;9109;48.050;11.696;2023-05-07T18:22:00;19.50;91.90
17968;DHT22;9109;48.050;11.696;2023-05-07T18:25:03;19.60;92.30
17968;DHT22;9109;48.050;11.696;2023-05-07T18:28:05;19.50;91.50
17968;DHT22;9109;48.050;11.696;2023-05-07T18:31:07;19.50;91.40
17968;DHT22;9109;48.050;11.696;2023-05-07T18:34:09;19.40;91.50
17968;DHT22;9109;48.050;11.696;2023-05-07T18:37:13;19.30;91.30
17968;DHT22;9109;48.050;11.696;2023-05-07T18:40:15;19.20;91.30
17968;DHT22;9109;48.050;11.696;2023-05-07T18:43:18;19.20;91.50
17968;DHT22;9109;48.050;11.696;2023-05-07T18:46:20;19.10;91.70
17968;DHT22;9109;48.050;11.696;2023-05-07T18:49:22;19.00;91.70
17968;DHT22;9109;48.050;11.696;2023-05-07T18:52:26;19.00;92.30
17968;DHT22;9109;48.050;11.696;2023-05-07T18:55:28;19.00;93.20
17968;DHT22;9109;48.050;11.696;2023-05-07T18:58:31;19.10;93.70
17968;DHT22;9109;48.050;11.696;2023-05-07T19:01:34;19.10;93.60
17968;DHT22;9109;48.050;11.696;2023-05-07T19:04:36;19.10;93.40
17968;DHT22;9109;48.050;11.696;2023-05-07T19:07:39;19.20;93.50
17968;DHT22;9109;48.050;11.696;2023-05-07T19:10:41;19.10;93.00
17968;DHT22;9109;48.050;11.696;2023-05-07T19:13:48;19.00;92.40
17968;DHT22;9109;48.050;11.696;2023-05-07T19:16:50;18.90;92.50
17968;DHT22;9109;48.050;11.696;2023-05-07T19:19:52;18.80;92.60
17968;DHT22;9109;48.050;11.696;2023-05-07T19:22:58;18.80;92.80
17968;DHT22;9109;48.050;11.696;2023-05-07T19:26:00;18.70;93.10
17968;DHT22;9109;48.050;11.696;2023-05-07T19:32:55;18.60;94.40
17968;DHT22;9109;48.050;11.696;2023-05-07T19:35:59;18.60;95.70
17968;DHT22;9109;48.050;11.696;2023-05-07T19:39:03;18.60;96.30
17968;DHT22;9109;48.050;11.696;2023-05-07T19:42:05;18.80;96.30
17968;DHT22;9109;48.050;11.696;2023-05-07T19:45:08;18.80;95.80
17968;DHT22;9109;48.050;11.696;2023-05-07T19:48:13;18.70;95.70
17968;DHT22;9109;48.050;11.696;2023-05-07T19:51:15;18.50;95.20
17968;DHT22;9109;48.050;11.696;2023-05-07T19:54:18;18.20;95.60
17968;DHT22;9109;48.050;11.696;2023-05-07T19:57:20;17.90;95.90
17968;DHT22;9109;48.050;11.696;2023-05-07T20:00:22;17.80;96.50
17968;DHT22;9109;48.050;11.696;2023-05-07T20:03:27;17.70;97.60
17968;DHT22;9109;48.050;11.696;2023-05-07T20:06:29;17.80;98.90
17968;DHT22;9109;48.050;11.696;2023-05-07T20:09:32;17.80;99.20
17968;DHT22;9109;48.050;11.696;2023-05-07T20:12:34;17.80;98.80
17968;DHT22;9109;48.050;11.696;2023-05-07T20:15:36;17.70;98.70
17968;DHT22;9109;48.050;11.696;2023-05-07T20:18:38;17.60;98.90
17968;DHT22;9109;48.050;11.696;2023-05-07T20:21:40;17.50;99.50
17968;DHT22;9109;48.050;11.696;2023-05-07T20:24:44;17.50;99.90
17968;DHT22;9109;48.050;11.696;2023-05-07T20:27:45;17.50;99.90
17968;DHT22;9109;48.050;11.696;2023-05-07T20:30:47;17.50;99.90
17968;DHT22;9109;48.050;11.696;2023-05-07T20:33:50;17.60;99.90
17968;DHT22;9109;48.050;11.696;2023-05-07T20:36:53;17.70;99.90
17968;DHT22;9109;48.050;11.696;2023-05-07T20:39:57;17.80;99.90
17968;DHT22;9109;48.050;11.696;2023-05-07T20:42:59;17.90;99.90
17968;DHT22;9109;48.050;11.696;2023-05-07T20:46:02;17.80;99.90
17968;DHT22;9109;48.050;11.696;2023-05-07T20:49:06;17.70;99.90
17968;DHT22;9109;48.050;11.696;2023-05-07T20:52:09;17.60;98.90
17968;DHT22;9109;48.050;11.696;2023-05-07T20:55:12;17.40;99.60
17968;DHT22;9109;48.050;11.696;2023-05-07T20:58:14;17.40;99.90
17968;DHT22;9109;48.050;11.696;2023-05-07T21:01:16;17.50;99.90
17968;DHT22;9109;48.050;11.696;2023-05-07T21:04:18;17.60;99.90
17968;DHT22;9109;48.050;11.696;2023-05-07T21:07:19;17.70;99.90
17968;DHT22;9109;48.050;11.696;2023-05-07T21:10:23;17.70;99.90
17968;DHT22;9109;48.050;11.696;2023-05-07T21:13:25;17.70;99.90
17968;DHT22;9109;48.050;11.696;2023-05-07T21:16:27;17.50;99.80
17968;DHT22;9109;48.050;11.696;2023-05-07T21:19:29;17.30;99.90
17968;DHT22;9109;48.050;11.696;2023-05-07T21:22:45;17.10;99.90
17968;DHT22;9109;48.050;11.696;2023-05-07T21:26:07;17.00;99.90
17968;DHT22;9109;48.050;11.696;2023-05-07T21:29:09;17.10;99.90
17968;DHT22;9109;48.050;11.696;2023-05-07T21:32:11;17.00;99.90
17968;DHT22;9109;48.050;11.696;2023-05-07T21:35:13;16.90;99.90
17968;DHT22;9109;48.050;11.696;2023-05-07T21:38:15;16.70;99.90
17968;DHT22;9109;48.050;11.696;2023-05-07T21:41:19;16.70;99.90
17968;DHT22;9109;48.050;11.696;2023-05-07T21:44:22;16.80;99.90
17968;DHT22;9109;48.050;11.696;2023-05-07T21:47:24;16.90;99.90
17968;DHT22;9109;48.050;11.696;2023-05-07T21:50:26;17.10;99.90
17968;DHT22;9109;48.050;11.696;2023-05-07T21:53:28;17.00;99.90
17968;DHT22;9109;48.050;11.696;2023-05-07T21:56:31;17.10;99.90
17968;DHT22;9109;48.050;11.696;2023-05-07T21:59:33;17.20;99.90
17968;DHT22;9109;48.050;11.696;2023-05-07T22:02:35;17.40;99.90
17968;DHT22;9109;48.050;11.696;2023-05-07T22:05:37;17.50;99.90
17968;DHT22;9109;48.050;11.696;2023-05-07T22:08:39;17.50;99.90
17968;DHT22;9109;48.050;11.696;2023-05-07T22:11:42;17.40;99.90
17968;DHT22;9109;48.050;11.696;2023-05-07T22:14:44;17.50;99.90
17968;DHT22;9109;48.050;11.696;2023-05-07T22:21:10;17.40;99.90
17968;DHT22;9109;48.050;11.696;2023-05-07T22:24:42;17.30;99.90
17968;DHT22;9109;48.050;11.696;2023-05-07T22:28:14;17.20;99.90
17968;DHT22;9109;48.050;11.696;2023-05-07T22:31:23;17.10;99.90
17968;DHT22;9109;48.050;11.696;2023-05-07T22:34:42;17.10;99.90
17968;DHT22;9109;48.050;11.696;2023-05-07T22:38:12;17.10;99.90
17968;DHT22;9109;48.050;11.696;2023-05-07T22:43:08;17.30;99.90
17968;DHT22;9109;48.050;11.696;2023-05-07T22:45:59;17.30;99.90
17968;DHT22;9109;48.050;11.696;2023-05-07T22:49:19;17.20;99.90
17968;DHT22;9109;48.050;11.696;2023-05-07T22:52:54;17.00;99.90
17968;DHT22;9109;48.050;11.696;2023-05-07T22:56:22;16.70;99.90
17968;DHT22;9109;48.050;11.696;2023-05-07T22:59:44;16.60;99.90
